Saint-Anicet, Canada
Current Conditions -  °F | °C
As of 7:53 PM on Sunday 23 Nov 2014 (Local Time) from KMSS Reporting Station
Overcast Overcast  
Wind Chill: 44°   Ceiling: 4400
Heat Index: 46°   Visibility: 10mi
Dew Point: 41°   Wind: 5mph
Humidity: 83%   Direction: 90°E
Pressure: 29.95"   Gusts: NA
Location:  45.13°N, 74.35°W
Report Text: KMSS 240053Z AUTO 09004KT 10SM BKN044 OVC070 08/05 A2995 RMK AO2 SLP146 T00780050
Loading
Personal Weather Stations






























Interactive Weather Map New forecast layout! Learn more

10-Day Weather Forecast

Advertisements
Track Severe Weather on mobile